Scituate, Massachusetts
Current Conditions -  °F | °C
As of 3:10 AM on Friday 24 Oct 2014 (Local Time) from KGHG Reporting Station
Haze Haze  
Wind Chill: 52°   Ceiling: 600
Heat Index: 52°   Visibility: 2mi
Dew Point: 50°   Wind: 9mph
Humidity: 94%   Direction: 360°N
Pressure: 29.64"   Gusts: 24mph
Location:  42.2°N, 70.77°W
Report Text: KGHG 240710Z AUTO 36008G21KT 020V360 2SM BR BKN006 OVC011 11/10 A2964 RMK AO2
Loading
Personal Weather Stations






























Interactive Weather Map
Tropical Storm Tracking
New forecast layout! Learn more

10-Day Weather Forecast

Advertisements
Track Severe Weather on mobile